createdAt,value
2018-04-30T00:01:15.397Z,20.81
2018-04-30T00:03:43.771Z,21.41
2018-04-30T00:06:12.298Z,20.82
2018-04-30T00:08:40.697Z,21.33
2018-04-30T00:11:09.080Z,20.65
2018-04-30T00:13:37.491Z,20.92
2018-04-30T00:16:05.976Z,20.81
2018-04-30T00:18:34.377Z,21.10
2018-04-30T00:21:02.756Z,20.41
2018-04-30T00:23:31.135Z,21.19
2018-04-30T00:25:59.506Z,21.12
2018-04-30T00:28:27.945Z,21.60
2018-04-30T00:30:56.312Z,21.74
2018-04-30T00:33:24.733Z,21.50
2018-04-30T00:35:53.126Z,21.21
2018-04-30T00:38:21.524Z,21.42
2018-04-30T00:40:49.967Z,21.67
2018-04-30T00:43:18.389Z,20.87
2018-04-30T00:45:46.787Z,21.45
2018-04-30T00:48:15.277Z,21.32
2018-04-30T00:50:43.675Z,21.41
2018-04-30T00:53:12.037Z,20.17
2018-04-30T00:55:40.422Z,20.83
2018-04-30T00:58:08.804Z,20.87
2018-04-30T01:00:37.208Z,19.96
2018-04-30T01:03:05.680Z,20.65
2018-04-30T01:05:34.045Z,21.03
2018-04-30T01:08:02.501Z,20.82
2018-04-30T01:10:30.873Z,21.21
2018-04-30T01:12:59.253Z,20.77
2018-04-30T01:15:27.649Z,21.27
2018-04-30T01:17:56.073Z,20.82
2018-04-30T01:20:24.474Z,20.68
2018-04-30T01:22:52.859Z,20.62
2018-04-30T01:25:21.301Z,20.65
2018-04-30T01:27:49.696Z,20.45
2018-04-30T01:30:18.130Z,20.50
2018-04-30T01:32:46.514Z,20.32
2018-04-30T01:35:14.993Z,20.05
2018-04-30T01:37:43.472Z,19.31
2018-04-30T01:40:11.834Z,19.36
2018-04-30T01:42:40.240Z,19.77
2018-04-30T01:45:09.680Z,19.94
2018-04-30T01:47:38.059Z,19.90
2018-04-30T01:50:06.457Z,19.73
2018-04-30T01:52:34.831Z,20.00
2018-04-30T01:55:03.216Z,19.70
2018-04-30T01:57:31.589Z,19.72
2018-04-30T02:00:00.038Z,19.61
2018-04-30T02:02:28.460Z,19.73
2018-04-30T02:04:56.821Z,19.42
2018-04-30T02:07:25.189Z,19.36
2018-04-30T02:09:53.556Z,19.62
2018-04-30T02:12:21.932Z,19.65
2018-04-30T02:14:50.317Z,19.54
2018-04-30T02:17:18.803Z,19.19
2018-04-30T02:19:47.157Z,18.74
2018-04-30T02:22:15.548Z,19.01
2018-04-30T02:24:43.934Z,19.12
2018-04-30T02:27:12.408Z,19.06
2018-04-30T02:29:40.865Z,18.77
2018-04-30T02:32:09.243Z,18.79
2018-04-30T02:34:37.638Z,18.53
2018-04-30T02:37:05.998Z,18.66
2018-04-30T02:39:34.369Z,18.85
2018-04-30T02:42:02.802Z,18.87
2018-04-30T02:44:31.205Z,19.47
2018-04-30T02:46:59.604Z,19.27
2018-04-30T02:49:27.983Z,18.80
2018-04-30T02:51:56.335Z,19.41
2018-04-30T02:54:24.703Z,19.91
2018-04-30T02:56:53.148Z,20.15
2018-04-30T02:59:21.546Z,20.18
2018-04-30T03:01:49.978Z,19.62
2018-04-30T03:04:18.380Z,20.59
2018-04-30T03:06:46.828Z,19.95
2018-04-30T03:09:15.227Z,19.90
2018-04-30T03:11:43.662Z,20.11
2018-04-30T03:14:12.089Z,20.44
2018-04-30T03:16:40.489Z,19.70
2018-04-30T03:19:08.902Z,19.69
2018-04-30T03:21:37.321Z,19.38
2018-04-30T03:24:05.820Z,19.42
2018-04-30T03:26:34.192Z,19.29
2018-04-30T03:29:02.705Z,19.20
2018-04-30T03:31:31.096Z,18.21
2018-04-30T03:33:59.538Z,18.56
2018-04-30T03:39:02.559Z,19.21
2018-04-30T03:41:37.664Z,18.33
2018-04-30T03:44:06.060Z,18.71
2018-04-30T03:46:35.450Z,18.32
2018-04-30T03:49:03.936Z,18.24
2018-04-30T03:51:32.367Z,18.62
2018-04-30T03:54:00.795Z,18.60
2018-04-30T03:56:29.230Z,18.47
2018-04-30T03:58:57.624Z,17.90
2018-04-30T04:01:39.939Z,18.45
2018-04-30T04:04:20.157Z,18.24
2018-04-30T04:06:52.404Z,17.85
2018-04-30T04:09:20.960Z,18.57
2018-04-30T04:11:49.788Z,18.12
2018-04-30T04:14:18.860Z,18.06
2018-04-30T04:16:47.593Z,17.97
2018-04-30T04:19:16.241Z,17.70
2018-04-30T04:21:44.691Z,17.60
2018-04-30T04:24:13.539Z,17.37
2018-04-30T04:26:43.132Z,17.47
2018-04-30T04:29:11.681Z,17.64
2018-04-30T04:31:40.097Z,17.55
2018-04-30T04:34:08.575Z,17.31
2018-04-30T04:36:37.051Z,17.68
2018-04-30T04:39:06.249Z,17.79
2018-04-30T04:41:34.640Z,16.92
2018-04-30T04:44:03.118Z,17.03
2018-04-30T04:46:31.695Z,16.88
2018-04-30T04:49:19.964Z,16.91
2018-04-30T04:52:00.514Z,17.21
2018-04-30T04:54:36.901Z,17.39
2018-04-30T04:57:07.182Z,17.42
2018-04-30T04:59:43.460Z,17.50
2018-04-30T05:02:24.176Z,17.50
2018-04-30T05:04:54.557Z,16.78
2018-04-30T05:07:22.967Z,16.68
2018-04-30T05:09:51.428Z,16.25
2018-04-30T05:12:19.901Z,16.29
2018-04-30T05:14:48.469Z,16.56
2018-04-30T05:17:16.894Z,16.30
2018-04-30T05:19:45.346Z,15.77
2018-04-30T05:22:13.823Z,16.08
2018-04-30T05:24:42.393Z,15.86
2018-04-30T05:27:10.965Z,15.78
2018-04-30T05:29:39.605Z,15.73
2018-04-30T05:32:09.018Z,15.66
2018-04-30T05:34:37.892Z,15.37
2018-04-30T05:37:07.155Z,15.21
2018-04-30T05:39:35.705Z,15.83
2018-04-30T05:42:04.149Z,15.81
2018-04-30T05:44:32.636Z,15.63
2018-04-30T05:47:01.267Z,16.14
2018-04-30T05:49:30.644Z,16.01
2018-04-30T05:51:59.063Z,16.88
2018-04-30T05:54:28.516Z,16.17
2018-04-30T05:56:57.755Z,16.14
2018-04-30T05:59:26.273Z,16.17
2018-04-30T06:01:54.679Z,16.18
2018-04-30T06:04:24.135Z,15.93
2018-04-30T06:06:52.600Z,16.29
2018-04-30T06:09:21.022Z,16.79
2018-04-30T06:11:49.387Z,16.75
2018-04-30T06:14:17.799Z,16.16
2018-04-30T06:16:46.258Z,16.99
2018-04-30T06:19:14.682Z,17.01
2018-04-30T06:21:43.074Z,17.00
2018-04-30T06:24:11.468Z,16.90
2018-04-30T06:26:40.009Z,17.11
2018-04-30T06:29:08.371Z,16.29
2018-04-30T06:31:36.782Z,15.86
2018-04-30T06:34:06.069Z,15.67
2018-04-30T06:36:34.659Z,15.80
2018-04-30T06:39:03.180Z,16.50
2018-04-30T06:41:31.616Z,16.71
2018-04-30T06:43:59.999Z,16.05
2018-04-30T06:46:28.435Z,15.76
2018-04-30T06:48:56.853Z,16.16
2018-04-30T06:51:25.271Z,17.08
2018-04-30T06:53:54.863Z,17.48
2018-04-30T06:56:23.736Z,17.02
2018-04-30T06:58:53.715Z,17.33
2018-04-30T07:01:23.653Z,17.47
2018-04-30T07:03:52.876Z,17.27
2018-04-30T07:12:29.680Z,17.77
2018-04-30T07:14:58.062Z,17.26
2018-04-30T07:17:26.494Z,17.28
2018-04-30T07:19:56.737Z,17.70
2018-04-30T07:22:25.173Z,17.24
2018-04-30T07:24:54.995Z,17.62
2018-04-30T07:27:23.700Z,17.44
2018-04-30T07:29:54.292Z,17.37
2018-04-30T07:32:23.029Z,16.95
2018-04-30T07:34:51.732Z,16.61
2018-04-30T07:37:24.126Z,16.73
2018-04-30T07:39:53.749Z,16.40
2018-04-30T07:42:24.903Z,16.22
2018-04-30T07:44:59.344Z,15.82
2018-04-30T07:47:27.773Z,16.97
2018-04-30T07:49:58.533Z,17.00
2018-04-30T07:52:29.537Z,16.56
2018-04-30T07:54:58.001Z,17.15
2018-04-30T07:57:26.376Z,16.39
2018-04-30T07:59:54.871Z,16.40
2018-04-30T08:02:23.229Z,16.25
2018-04-30T08:04:57.924Z,16.13
2018-04-30T08:07:27.183Z,15.54
2018-04-30T08:09:55.596Z,16.29
2018-04-30T08:12:25.598Z,15.60
2018-04-30T08:14:55.740Z,16.05
2018-04-30T08:17:24.124Z,15.64
2018-04-30T08:19:54.115Z,15.82
2018-04-30T08:22:25.189Z,15.88
2018-04-30T08:24:53.886Z,16.21
2018-04-30T08:27:24.190Z,15.87
2018-04-30T08:29:58.670Z,15.88
2018-04-30T08:32:27.148Z,15.27
2018-04-30T08:34:55.644Z,14.97
2018-04-30T08:37:28.348Z,15.52
2018-04-30T08:39:59.141Z,15.33
2018-04-30T08:42:27.553Z,16.83
2018-04-30T08:44:56.813Z,16.74
2018-04-30T08:47:25.201Z,16.81
2018-04-30T08:49:53.661Z,15.60
2018-04-30T08:52:28.411Z,15.37
2018-04-30T08:54:57.060Z,15.11
2018-04-30T08:57:25.459Z,15.84
2018-04-30T08:59:54.612Z,15.99
2018-04-30T09:02:24.192Z,16.81
2018-04-30T09:04:55.679Z,15.68
2018-04-30T09:07:25.543Z,16.22
2018-04-30T09:09:54.132Z,16.41
2018-04-30T09:12:26.219Z,15.65
2018-04-30T09:14:56.563Z,16.04
2018-04-30T09:17:26.557Z,15.86
2018-04-30T09:19:54.962Z,15.27
2018-04-30T09:22:25.774Z,15.05
2018-04-30T09:24:54.202Z,15.43
2018-04-30T09:27:24.645Z,15.18
2018-04-30T09:29:55.169Z,15.15
2018-04-30T09:32:25.262Z,15.37
2018-04-30T09:34:55.766Z,15.66
2018-04-30T09:37:28.697Z,15.30
2018-04-30T09:39:57.160Z,15.98
2018-04-30T09:42:25.883Z,15.57
2018-04-30T09:44:54.481Z,15.64
2018-04-30T09:47:24.263Z,16.32
2018-04-30T09:49:55.882Z,16.06
2018-04-30T09:52:24.775Z,16.20
2018-04-30T09:54:53.673Z,16.31
2018-04-30T09:57:23.257Z,16.01
2018-04-30T09:59:53.790Z,16.29
2018-04-30T10:02:24.780Z,15.54
2018-04-30T10:04:53.280Z,14.71
2018-04-30T10:07:23.356Z,15.98
2018-04-30T10:09:52.917Z,15.90
2018-04-30T10:12:22.777Z,15.37
2018-04-30T10:14:53.004Z,15.64
2018-04-30T10:17:22.817Z,16.06
2018-04-30T10:19:52.486Z,16.71
2018-04-30T10:22:22.229Z,17.27
2018-04-30T10:24:52.136Z,16.91
2018-04-30T10:27:22.148Z,17.07
2018-04-30T10:29:52.467Z,17.67
2018-04-30T10:32:22.637Z,19.67
2018-04-30T10:34:52.668Z,19.61
2018-04-30T10:37:23.557Z,18.63
2018-04-30T10:39:52.955Z,17.96
2018-04-30T10:42:22.787Z,17.71
2018-04-30T10:44:51.979Z,16.83
2018-04-30T10:47:21.437Z,16.45
2018-04-30T10:49:51.382Z,17.61
2018-04-30T10:52:22.878Z,16.78
2018-04-30T10:54:51.597Z,17.66
2018-04-30T10:57:25.793Z,16.31
2018-04-30T10:59:54.220Z,16.81
2018-04-30T11:02:24.856Z,17.36
2018-04-30T11:04:56.778Z,17.52
2018-04-30T11:07:25.223Z,18.02
2018-04-30T11:09:56.722Z,18.62
2018-04-30T11:12:29.020Z,17.19
2018-04-30T11:14:57.385Z,17.50
2018-04-30T11:17:27.140Z,17.56
2018-04-30T11:19:56.429Z,17.60
2018-04-30T11:22:24.878Z,17.00
2018-04-30T11:24:56.813Z,17.34
2018-04-30T11:27:29.287Z,17.88
2018-04-30T11:29:57.669Z,17.64
2018-04-30T11:32:28.706Z,17.38
2018-04-30T11:34:57.204Z,17.57
2018-04-30T11:37:29.401Z,17.53
2018-04-30T11:39:58.085Z,16.90
2018-04-30T11:42:27.344Z,16.82
2018-04-30T11:44:56.254Z,17.13
2018-04-30T11:47:25.261Z,17.24
2018-04-30T11:49:54.555Z,17.72
2018-04-30T11:52:24.328Z,17.47
2018-04-30T11:54:53.985Z,17.30
2018-04-30T11:57:24.334Z,16.80
2018-04-30T11:59:54.675Z,17.34
2018-04-30T12:02:24.889Z,17.79
2018-04-30T12:04:54.815Z,17.48
2018-04-30T12:07:24.681Z,18.11
2018-04-30T12:09:54.001Z,18.65
2018-04-30T12:12:24.470Z,18.91
2018-04-30T12:14:54.399Z,17.99
2018-04-30T12:17:23.846Z,17.64
2018-04-30T12:19:53.582Z,17.46
2018-04-30T12:22:23.349Z,18.18
2018-04-30T12:24:54.105Z,19.15
2018-04-30T12:27:22.908Z,19.55
2018-04-30T12:29:55.855Z,19.22
2018-04-30T12:32:25.184Z,18.26
2018-04-30T12:34:54.770Z,18.50
2018-04-30T12:37:24.481Z,18.83
2018-04-30T12:39:54.654Z,18.41
2018-04-30T12:42:23.748Z,18.34
2018-04-30T12:44:54.301Z,17.70
2018-04-30T12:47:24.312Z,17.59
2018-04-30T12:49:53.638Z,19.04
2018-04-30T12:52:23.924Z,18.69
2018-04-30T12:54:56.316Z,19.54
2018-04-30T12:57:24.982Z,19.67
2018-04-30T12:59:54.203Z,18.71
2018-04-30T13:02:24.866Z,19.51
2018-04-30T13:04:54.818Z,19.02
2018-04-30T13:07:25.647Z,18.13
2018-04-30T13:09:55.238Z,18.58
2018-04-30T13:12:25.304Z,18.64
2018-04-30T13:14:55.032Z,17.82
2018-04-30T13:17:26.018Z,17.39
2018-04-30T13:19:54.965Z,17.84
2018-04-30T13:22:24.645Z,17.98
2018-04-30T13:24:58.936Z,18.14
2018-04-30T13:27:27.367Z,17.63
2018-04-30T13:29:55.779Z,17.39
2018-04-30T13:32:26.617Z,17.86
2018-04-30T13:34:55.049Z,17.07
2018-04-30T13:37:28.357Z,16.53
2018-04-30T13:39:56.756Z,16.73
2018-04-30T13:42:29.296Z,17.27
2018-04-30T13:44:57.723Z,17.44
2018-04-30T13:47:26.257Z,18.24
2018-04-30T13:49:55.381Z,18.26
2018-04-30T13:52:25.281Z,18.48
2018-04-30T13:54:54.881Z,18.52
2018-04-30T13:57:24.247Z,18.60
2018-04-30T13:59:52.671Z,17.94
2018-04-30T14:02:27.895Z,18.26
2018-04-30T14:04:56.324Z,18.25
2018-04-30T14:07:28.788Z,18.47
2018-04-30T14:09:58.818Z,18.62
2018-04-30T14:12:27.485Z,18.25
2018-04-30T14:14:55.936Z,17.36
2018-04-30T14:17:27.804Z,16.99
2018-04-30T14:19:57.222Z,16.36
2018-04-30T14:22:25.664Z,16.93
2018-04-30T14:24:56.698Z,16.78
2018-04-30T14:27:25.716Z,17.36
2018-04-30T14:29:54.820Z,17.37
2018-04-30T14:32:25.749Z,16.86
2018-04-30T14:34:55.779Z,16.85
2018-04-30T14:37:27.226Z,15.46
2018-04-30T14:39:56.717Z,15.47
2018-04-30T14:42:27.229Z,16.64
2018-04-30T14:44:55.953Z,16.43
2018-04-30T14:47:26.281Z,16.34
2018-04-30T14:49:55.403Z,16.16
2018-04-30T14:52:24.786Z,16.25
2018-04-30T14:54:58.446Z,16.65
2018-04-30T14:57:28.361Z,16.72
2018-04-30T14:59:56.779Z,16.96
2018-04-30T15:02:26.173Z,16.58
2018-04-30T15:04:58.881Z,16.77
2018-04-30T15:07:27.825Z,16.59
2018-04-30T15:09:56.686Z,17.30
2018-04-30T15:12:25.269Z,16.80
2018-04-30T15:14:55.100Z,16.64
2018-04-30T15:17:25.297Z,16.68
2018-04-30T15:19:55.828Z,16.61
2018-04-30T15:22:25.049Z,17.04
2018-04-30T15:24:55.769Z,17.39
2018-04-30T15:27:26.880Z,17.65
2018-04-30T15:30:00.811Z,17.84
2018-04-30T15:32:29.523Z,18.42
2018-04-30T15:34:58.071Z,18.75
2018-04-30T15:37:26.963Z,18.65
2018-04-30T15:39:56.387Z,16.91
2018-04-30T15:42:26.840Z,17.87
2018-04-30T15:44:55.937Z,18.12
2018-04-30T15:47:26.777Z,18.05
2018-04-30T15:49:57.336Z,18.07
2018-04-30T15:52:26.802Z,18.43
2018-04-30T15:54:56.880Z,17.96
2018-04-30T15:57:26.837Z,18.34
2018-04-30T15:59:56.725Z,17.56
2018-04-30T16:02:25.148Z,16.81
2018-04-30T16:04:53.561Z,17.33
2018-04-30T16:07:23.831Z,16.55
2018-04-30T16:09:52.491Z,16.67
2018-04-30T16:12:26.311Z,17.29
2018-04-30T16:14:55.137Z,17.86
2018-04-30T16:17:24.571Z,17.90
2018-04-30T16:19:55.100Z,17.68
2018-04-30T16:22:24.775Z,16.68
2018-04-30T16:24:53.576Z,16.49
2018-04-30T16:27:23.815Z,15.76
2018-04-30T16:29:52.869Z,15.71
2018-04-30T16:32:22.137Z,15.34
2018-04-30T16:34:52.073Z,15.31
2018-04-30T16:37:22.832Z,14.68
2018-04-30T16:39:51.896Z,14.86
2018-04-30T16:42:29.379Z,14.64
2018-04-30T16:45:15.699Z,14.92
2018-04-30T16:47:50.420Z,13.77
2018-04-30T16:50:19.906Z,14.01
2018-04-30T16:52:48.890Z,15.12
2018-04-30T16:55:18.327Z,15.17
2018-04-30T16:57:48.471Z,14.87
2018-04-30T17:00:17.540Z,14.57
2018-04-30T17:02:46.367Z,14.33
2018-04-30T17:05:15.519Z,15.03
2018-04-30T17:07:45.259Z,13.85
2018-04-30T17:10:14.942Z,14.02
2018-04-30T17:12:45.060Z,14.24
2018-04-30T17:15:14.965Z,14.41
2018-04-30T17:17:46.370Z,13.82
2018-04-30T17:20:15.539Z,14.12
2018-04-30T17:22:44.826Z,14.28
2018-04-30T17:25:14.843Z,14.12
2018-04-30T17:27:47.542Z,14.09
2018-04-30T17:30:17.153Z,14.41
2018-04-30T17:32:47.264Z,14.41
2018-04-30T17:35:18.023Z,14.25
2018-04-30T17:37:47.694Z,14.56
2018-04-30T17:40:17.726Z,14.17
2018-04-30T17:42:49.791Z,14.87
2018-04-30T17:45:19.191Z,14.79
2018-04-30T17:47:48.858Z,15.00
2018-04-30T17:50:19.571Z,14.98
2018-04-30T17:52:49.758Z,15.01
2018-04-30T17:55:20.102Z,14.14
2018-04-30T17:57:52.503Z,13.60
2018-04-30T18:00:22.115Z,13.92
2018-04-30T18:02:51.073Z,14.07
2018-04-30T18:05:26.190Z,14.71
2018-04-30T18:07:54.588Z,14.44
2018-04-30T18:10:24.890Z,14.18
2018-04-30T18:12:53.354Z,14.28
2018-04-30T18:15:23.620Z,13.96
2018-04-30T18:20:28.429Z,14.53
2018-04-30T18:22:56.846Z,14.33
2018-04-30T18:25:27.867Z,14.10
2018-04-30T18:27:56.276Z,13.93
2018-04-30T18:30:25.530Z,14.78
2018-04-30T18:32:56.749Z,13.81
2018-04-30T18:35:26.694Z,14.61
2018-04-30T18:38:35.979Z,15.14
2018-04-30T18:41:11.518Z,14.57
2018-04-30T18:43:43.330Z,15.12
2018-04-30T18:46:15.735Z,15.42
2018-04-30T18:48:46.048Z,15.45
2018-04-30T18:51:15.716Z,15.83
2018-04-30T18:53:46.392Z,15.57
2018-04-30T18:56:16.091Z,15.79
2018-04-30T18:58:45.592Z,14.62
2018-04-30T19:01:15.041Z,14.67
2018-04-30T19:03:44.811Z,13.54
2018-04-30T19:06:15.334Z,14.32
2018-04-30T19:08:45.979Z,14.46
2018-04-30T19:11:21.656Z,15.10
2018-04-30T19:13:52.437Z,14.25
2018-04-30T19:16:21.877Z,14.88
2018-04-30T19:18:51.391Z,14.84
2018-04-30T19:21:20.726Z,14.05
2018-04-30T19:23:51.475Z,13.92
2018-04-30T19:26:25.230Z,14.57
2018-04-30T19:28:53.738Z,13.82
2018-04-30T19:31:22.880Z,14.22
2018-04-30T19:33:52.147Z,13.89
2018-04-30T19:36:22.820Z,14.38
2018-04-30T19:38:51.999Z,13.30
2018-04-30T19:41:21.548Z,13.06
2018-04-30T19:43:54.844Z,13.81
2018-04-30T19:46:24.142Z,13.67
2018-04-30T19:48:53.798Z,13.10
2018-04-30T19:51:22.996Z,13.03
2018-04-30T19:53:52.385Z,13.54
2018-04-30T19:56:21.589Z,13.48
2018-04-30T19:58:51.107Z,12.88
2018-04-30T20:01:20.244Z,12.49
2018-04-30T20:03:50.068Z,12.76
2018-04-30T20:06:19.425Z,12.62
2018-04-30T20:08:48.552Z,12.95
2018-04-30T20:11:17.971Z,12.93
2018-04-30T20:13:47.184Z,13.18
2018-04-30T20:16:17.270Z,13.61
2018-04-30T20:18:49.360Z,13.15
2018-04-30T20:21:19.651Z,13.01
2018-04-30T20:23:48.690Z,13.20
2018-04-30T20:26:17.972Z,12.81
2018-04-30T20:28:47.101Z,13.42
2018-04-30T20:31:18.247Z,14.45
2018-04-30T20:33:47.547Z,14.20
2018-04-30T20:36:17.055Z,13.59
2018-04-30T20:38:45.921Z,13.64
2018-04-30T20:41:15.840Z,12.99
2018-04-30T20:43:46.596Z,12.32
2018-04-30T20:46:16.697Z,12.41
2018-04-30T20:48:55.375Z,13.02
2018-04-30T20:51:23.799Z,13.42
2018-04-30T20:53:53.331Z,13.46
2018-04-30T20:56:21.836Z,12.68
2018-04-30T20:58:51.335Z,12.57
2018-04-30T21:01:22.950Z,12.45
2018-04-30T21:03:51.630Z,12.97
2018-04-30T21:06:20.986Z,13.17
2018-04-30T21:09:01.159Z,13.00
2018-04-30T21:11:29.559Z,12.68
2018-04-30T21:13:57.937Z,12.15
2018-04-30T21:16:27.029Z,11.74
2018-04-30T21:18:55.451Z,12.36
2018-04-30T21:21:26.079Z,11.80
2018-04-30T21:23:54.497Z,11.90
2018-04-30T21:26:24.453Z,11.86
2018-04-30T21:28:53.408Z,12.29
2018-04-30T21:31:25.266Z,11.44
2018-04-30T21:33:53.766Z,12.28
2018-04-30T21:36:22.181Z,11.92
2018-04-30T21:38:52.424Z,11.48
2018-04-30T21:41:22.565Z,11.29
2018-04-30T21:43:53.816Z,11.59
2018-04-30T21:46:22.492Z,11.98
2018-04-30T21:48:55.037Z,12.12
2018-04-30T21:51:23.506Z,12.17
2018-04-30T21:53:57.751Z,10.94
2018-04-30T21:56:26.124Z,11.26
2018-04-30T21:58:55.864Z,11.54
2018-04-30T22:01:24.178Z,11.71
2018-04-30T22:03:52.617Z,11.52
2018-04-30T22:06:24.159Z,11.15
2018-04-30T22:08:52.777Z,11.81
2018-04-30T22:11:24.040Z,11.16
2018-04-30T22:13:52.446Z,11.47
2018-04-30T22:16:23.322Z,10.90
2018-04-30T22:18:52.155Z,10.55
2018-04-30T22:21:22.374Z,11.39
2018-04-30T22:23:52.860Z,10.63
2018-04-30T22:26:25.233Z,10.86
2018-04-30T22:28:53.610Z,10.44
2018-04-30T22:31:23.800Z,10.73
2018-04-30T22:33:54.424Z,10.98
2018-04-30T22:36:22.770Z,11.15
2018-04-30T22:38:53.815Z,11.37
2018-04-30T22:41:22.316Z,11.28
2018-04-30T22:43:53.147Z,10.22
2018-04-30T22:46:21.865Z,10.28
2018-04-30T22:48:55.949Z,10.56
2018-04-30T22:51:24.366Z,10.10
2018-04-30T22:53:56.445Z,10.28
2018-04-30T22:56:24.815Z,10.16
2018-04-30T22:59:22.479Z,9.95
2018-04-30T23:45:22.236Z,9.99
2018-04-30T23:47:52.106Z,8.64
2018-04-30T23:50:23.344Z,9.35
2018-04-30T23:52:52.681Z,8.90
2018-04-30T23:55:22.672Z,9.54
2018-04-30T23:57:51.422Z,8.86
